Terminal Aerodrome Forecast
Issued by NWS

Home | Current Version | Previous Version | Text Only | Print | Product List | Glossary On
Versions: 1 2 3 4 5 6 7 8 9 10 11 12 13 14 15 16 17 18 19 20 21 22 23
497
FTUS42 KTAE 161120
TAFABY
TAF
KABY 161120Z 1612/1712 26005KT P6SM SCT250
     FM161700 28006KT P6SM VCTS BKN050CB
     FM170300 23003KT P6SM SCT250=

USA.gov is the U.S. government's official web portal to all federal, state and local government web resources and services.